createdAt,value
2023-01-20T00:01:21.972Z,27.35
2023-01-20T00:03:49.322Z,26.30
2023-01-20T00:06:16.682Z,22.17
2023-01-20T00:08:43.911Z,26.48
2023-01-20T00:11:12.299Z,25.70
2023-01-20T00:13:39.608Z,21.88
2023-01-20T00:16:08.848Z,24.92
2023-01-20T00:18:36.454Z,24.70
2023-01-20T00:21:04.949Z,21.85
2023-01-20T00:23:32.207Z,22.52
2023-01-20T00:25:59.518Z,25.85
2023-01-20T00:28:27.116Z,25.75
2023-01-20T00:30:54.419Z,25.02
2023-01-20T00:33:21.907Z,24.02
2023-01-20T00:35:49.143Z,25.75
2023-01-20T00:38:17.783Z,25.17
2023-01-20T00:40:45.023Z,26.95
2023-01-20T00:43:13.242Z,20.60
2023-01-20T00:45:41.084Z,22.38
2023-01-20T00:48:08.366Z,25.55
2023-01-20T00:50:35.625Z,25.23
2023-01-20T00:53:02.907Z,25.00
2023-01-20T00:55:30.184Z,26.60
2023-01-20T00:57:57.365Z,26.77
2023-01-20T01:00:24.695Z,24.92
2023-01-20T01:02:54.846Z,24.33
2023-01-20T01:05:22.835Z,24.25
2023-01-20T01:07:50.094Z,23.17
2023-01-20T01:10:17.427Z,25.02
2023-01-20T01:12:44.678Z,27.63
2023-01-20T01:15:12.101Z,19.17
2023-01-20T01:17:39.533Z,29.27
2023-01-20T01:20:07.173Z,23.65
2023-01-20T01:22:34.454Z,24.15
2023-01-20T01:25:01.695Z,26.88
2023-01-20T01:27:29.262Z,21.48
2023-01-20T01:29:56.879Z,24.60
2023-01-20T01:32:24.166Z,23.08
2023-01-20T01:34:51.411Z,20.50
2023-01-20T01:37:18.623Z,22.80
2023-01-20T01:39:45.817Z,18.40
2023-01-20T01:42:14.095Z,21.23
2023-01-20T01:45:20.655Z,25.55
2023-01-20T01:48:06.236Z,22.80
2023-01-20T01:50:55.450Z,24.15
2023-01-20T01:53:22.632Z,26.45
2023-01-20T01:55:52.357Z,29.98
2023-01-20T01:58:20.462Z,27.02
2023-01-20T02:00:47.729Z,27.10
2023-01-20T02:03:14.927Z,26.20
2023-01-20T02:05:42.455Z,22.13
2023-01-20T02:08:09.736Z,25.65
2023-01-20T02:10:37.014Z,30.05
2023-01-20T02:13:04.277Z,25.30
2023-01-20T02:15:54.322Z,19.40
2023-01-20T02:18:27.548Z,23.58
2023-01-20T02:21:14.965Z,23.27
2023-01-20T02:24:00.797Z,22.55
2023-01-20T02:27:05.491Z,21.13
2023-01-20T02:29:50.126Z,23.33
2023-01-20T02:32:42.241Z,25.25
2023-01-20T02:35:29.347Z,21.52
2023-01-20T02:38:02.569Z,16.85
2023-01-20T02:40:51.190Z,20.75
2023-01-20T02:43:19.818Z,19.67
2023-01-20T02:46:12.983Z,24.17
2023-01-20T02:49:00.763Z,21.17
2023-01-20T02:51:36.807Z,17.67
2023-01-20T02:54:06.092Z,26.98
2023-01-20T02:56:33.363Z,22.77
2023-01-20T02:59:06.243Z,22.02
2023-01-20T03:01:36.316Z,17.50
2023-01-20T03:04:04.203Z,23.05
2023-01-20T03:06:35.177Z,22.35
2023-01-20T03:09:04.311Z,20.52
2023-01-20T03:11:31.622Z,20.08
2023-01-20T03:14:02.394Z,27.15
2023-01-20T03:16:29.939Z,16.52
2023-01-20T03:18:57.182Z,17.38
2023-01-20T03:21:24.709Z,21.73
2023-01-20T03:23:53.513Z,19.13
2023-01-20T03:26:21.608Z,23.73
2023-01-20T03:28:49.471Z,17.20
2023-01-20T03:31:24.376Z,20.88
2023-01-20T03:33:53.180Z,19.60
2023-01-20T03:36:21.271Z,22.92
2023-01-20T03:38:48.529Z,24.70
2023-01-20T03:41:53.338Z,18.75
2023-01-20T03:44:41.051Z,25.63
2023-01-20T03:47:25.264Z,21.88
2023-01-20T03:50:24.924Z,23.75
2023-01-20T03:53:06.292Z,22.58
2023-01-20T03:58:16.264Z,16.58
2023-01-20T04:00:45.022Z,19.83
2023-01-20T04:03:16.563Z,20.52
2023-01-20T04:05:43.823Z,18.23
2023-01-20T04:08:11.088Z,18.63
2023-01-20T04:10:39.788Z,18.00
2023-01-20T04:13:07.033Z,25.58
2023-01-20T04:15:44.529Z,18.17
2023-01-20T04:18:19.973Z,17.95
2023-01-20T04:20:58.639Z,23.50
2023-01-20T04:23:32.851Z,20.05
2023-01-20T04:26:00.132Z,17.33
2023-01-20T04:28:27.468Z,18.73
2023-01-20T04:30:54.897Z,25.92
2023-01-20T04:33:22.319Z,18.52
2023-01-20T04:35:49.507Z,27.27
2023-01-20T04:38:16.762Z,20.17
2023-01-20T04:40:43.975Z,19.08
2023-01-20T04:43:12.171Z,21.38
2023-01-20T04:45:41.165Z,18.00
2023-01-20T04:48:08.755Z,20.67
2023-01-20T04:50:39.824Z,19.05
2023-01-20T04:53:07.481Z,22.60
2023-01-20T04:55:35.268Z,19.23
2023-01-20T04:58:02.490Z,20.85
2023-01-20T05:00:29.810Z,18.13
2023-01-20T05:02:58.323Z,22.20
2023-01-20T05:05:25.721Z,22.38
2023-01-20T05:07:53.477Z,23.30
2023-01-20T05:10:21.010Z,22.50
2023-01-20T05:12:48.246Z,20.90
2023-01-20T05:15:15.778Z,19.27
2023-01-20T05:17:43.118Z,19.63
2023-01-20T05:20:10.999Z,20.65
2023-01-20T05:22:38.310Z,28.50
2023-01-20T05:25:06.055Z,23.05
2023-01-20T05:27:36.607Z,20.90
2023-01-20T05:30:07.343Z,28.03
2023-01-20T05:32:34.599Z,24.23
2023-01-20T05:35:01.801Z,21.90
2023-01-20T05:37:29.073Z,20.60
2023-01-20T05:39:56.257Z,24.92
2023-01-20T05:42:23.496Z,22.75
2023-01-20T05:44:50.726Z,30.67
2023-01-20T05:47:17.990Z,27.95
2023-01-20T05:49:45.214Z,22.17
2023-01-20T05:52:12.465Z,21.05
2023-01-20T05:54:39.695Z,21.63
2023-01-20T05:57:06.936Z,22.70
2023-01-20T05:59:34.211Z,27.65
2023-01-20T06:02:01.466Z,24.77
2023-01-20T06:04:28.736Z,24.80
2023-01-20T06:06:55.939Z,23.70
2023-01-20T06:09:23.279Z,27.92
2023-01-20T06:11:51.151Z,25.35
2023-01-20T06:14:18.461Z,36.20
2023-01-20T06:16:45.727Z,24.70
2023-01-20T06:19:12.953Z,23.85
2023-01-20T06:21:40.190Z,19.35
2023-01-20T06:24:07.517Z,28.30
2023-01-20T06:26:34.769Z,20.55
2023-01-20T06:29:01.973Z,27.90
2023-01-20T06:31:29.392Z,26.95
2023-01-20T06:33:56.754Z,26.05
2023-01-20T06:36:24.066Z,23.27
2023-01-20T06:38:52.964Z,24.23
2023-01-20T06:41:20.574Z,26.73
2023-01-20T06:43:48.035Z,18.85
2023-01-20T06:46:15.806Z,28.65
2023-01-20T06:48:43.334Z,25.63
2023-01-20T06:51:18.348Z,28.50
2023-01-20T06:53:45.634Z,29.88
2023-01-20T06:56:13.514Z,25.70
2023-01-20T06:58:40.820Z,27.92
2023-01-20T07:01:22.143Z,29.67
2023-01-20T07:55:17.167Z,26.20
2023-01-20T07:57:44.894Z,23.73
2023-01-20T08:00:12.624Z,24.80
2023-01-20T08:02:40.343Z,28.10
2023-01-20T08:05:08.121Z,23.73
2023-01-20T08:07:35.659Z,23.08
2023-01-20T08:10:03.373Z,25.65
2023-01-20T08:12:32.381Z,34.45
2023-01-20T08:14:59.836Z,26.33
2023-01-20T08:17:27.229Z,25.38
2023-01-20T08:19:57.511Z,26.70
2023-01-20T08:22:25.655Z,25.55
2023-01-20T08:24:53.087Z,22.85
2023-01-20T08:27:21.321Z,25.15
2023-01-20T08:29:48.861Z,23.02
2023-01-20T08:32:16.320Z,27.60
2023-01-20T08:34:43.714Z,20.08
2023-01-20T08:37:11.203Z,24.58
2023-01-20T08:39:38.782Z,25.48
2023-01-20T08:42:06.231Z,23.58
2023-01-20T08:44:33.611Z,23.80
2023-01-20T08:47:03.206Z,21.83
2023-01-20T08:49:30.673Z,20.75
2023-01-20T08:51:58.063Z,22.35
2023-01-20T08:54:25.581Z,26.92
2023-01-20T08:56:53.148Z,23.42
2023-01-20T08:59:21.801Z,26.85
2023-01-20T09:01:49.515Z,25.80
2023-01-20T09:04:17.036Z,25.90
2023-01-20T09:06:46.281Z,21.40
2023-01-20T09:09:14.701Z,24.45
2023-01-20T09:11:44.935Z,20.77
2023-01-20T09:14:12.744Z,26.52
2023-01-20T09:16:40.829Z,24.05
2023-01-20T09:19:08.624Z,18.20
2023-01-20T09:21:36.163Z,23.27
2023-01-20T09:24:03.783Z,21.33
2023-01-20T09:26:41.733Z,26.60
2023-01-20T09:29:13.274Z,17.98
2023-01-20T09:31:44.714Z,24.40
2023-01-20T09:34:16.448Z,25.45
2023-01-20T09:39:32.086Z,25.60
2023-01-20T09:42:19.914Z,24.77
2023-01-20T09:44:50.067Z,21.38
2023-01-20T09:47:28.597Z,21.65
2023-01-20T09:50:29.245Z,35.17
2023-01-20T09:53:15.459Z,44.33
2023-01-20T09:55:45.265Z,27.08
2023-01-20T09:58:32.849Z,26.85
2023-01-20T10:01:33.438Z,20.48
2023-01-20T10:04:21.152Z,21.15
2023-01-20T10:07:04.639Z,25.27
2023-01-20T10:10:01.353Z,27.55
2023-01-20T10:12:32.375Z,45.17
2023-01-20T10:15:15.809Z,35.17
2023-01-20T10:17:51.097Z,38.00
2023-01-20T10:20:56.737Z,34.40
2023-01-20T10:23:36.837Z,30.55
2023-01-20T10:26:10.094Z,38.63
2023-01-20T10:28:42.944Z,31.23
2023-01-20T10:31:10.765Z,41.50
2023-01-20T10:33:39.891Z,34.83
2023-01-20T10:36:11.021Z,44.45
2023-01-20T10:39:02.869Z,42.67
2023-01-20T10:41:33.653Z,37.05
2023-01-20T10:44:02.313Z,28.05
2023-01-20T10:46:34.736Z,36.97
2023-01-20T10:49:02.091Z,27.75
2023-01-20T10:51:38.587Z,28.33
2023-01-20T10:54:41.281Z,28.08
2023-01-20T10:57:11.457Z,26.75
2023-01-20T10:59:44.914Z,35.97
2023-01-20T11:02:32.398Z,33.17
2023-01-20T11:07:54.871Z,27.33
2023-01-20T11:10:26.349Z,26.88
2023-01-20T11:12:55.705Z,29.25
2023-01-20T11:15:35.745Z,31.35
2023-01-20T11:18:15.493Z,25.55
2023-01-20T11:21:04.010Z,33.33
2023-01-20T11:23:40.122Z,29.27
2023-01-20T11:26:44.201Z,26.90
2023-01-20T11:29:11.698Z,26.02
2023-01-20T11:31:44.964Z,23.80
2023-01-20T11:34:31.649Z,23.38
2023-01-20T11:37:05.139Z,22.70
2023-01-20T11:40:01.341Z,22.33
2023-01-20T11:42:43.375Z,23.08
2023-01-20T11:45:27.067Z,27.02
2023-01-20T11:48:01.862Z,27.52
2023-01-20T11:50:32.510Z,18.73
2023-01-20T11:53:32.931Z,21.15
2023-01-20T11:56:02.267Z,28.38
2023-01-20T11:58:34.487Z,23.63
2023-01-20T12:01:07.090Z,19.98
2023-01-20T12:03:52.960Z,23.90
2023-01-20T12:06:24.409Z,20.30
2023-01-20T12:11:41.998Z,16.83
2023-01-20T12:14:42.246Z,19.60
2023-01-20T12:17:31.590Z,18.27
2023-01-20T12:20:24.767Z,19.48
2023-01-20T12:23:21.354Z,20.65
2023-01-20T12:26:02.414Z,18.67
2023-01-20T12:31:24.028Z,19.98
2023-01-20T12:33:52.290Z,22.05
2023-01-20T12:36:41.417Z,19.23
2023-01-20T12:39:28.679Z,18.45
2023-01-20T12:42:11.127Z,19.70
2023-01-20T12:44:51.201Z,20.33
2023-01-20T12:47:56.226Z,17.33
2023-01-20T12:50:48.417Z,17.83
2023-01-20T12:53:39.067Z,23.67
2023-01-20T12:56:25.464Z,20.77
2023-01-20T12:59:15.189Z,20.98
2023-01-20T13:01:56.765Z,18.70
2023-01-20T13:05:00.621Z,17.40
2023-01-20T13:07:57.166Z,21.23
2023-01-20T13:10:51.180Z,19.48
2023-01-20T13:13:25.603Z,21.65
2023-01-20T13:16:02.949Z,24.08
2023-01-20T13:18:53.532Z,20.33
2023-01-20T13:21:21.425Z,22.87
2023-01-20T13:23:49.514Z,23.15
2023-01-20T13:26:17.481Z,18.35
2023-01-20T13:28:52.563Z,19.42
2023-01-20T13:31:43.050Z,18.25
2023-01-20T13:34:22.709Z,22.58
2023-01-20T13:37:02.928Z,22.38
2023-01-20T13:39:39.913Z,26.30
2023-01-20T13:42:30.280Z,28.40
2023-01-20T13:45:30.073Z,33.28
2023-01-20T13:48:06.559Z,27.90
2023-01-20T13:50:41.377Z,23.48
2023-01-20T13:53:20.848Z,26.55
2023-01-20T13:55:51.170Z,33.28
2023-01-20T13:58:19.313Z,31.13
2023-01-20T14:00:48.911Z,32.05
2023-01-20T14:03:19.268Z,25.02
2023-01-20T14:05:51.343Z,27.75
2023-01-20T14:08:19.372Z,25.58
2023-01-20T14:10:46.857Z,19.15
2023-01-20T14:13:22.057Z,24.50
2023-01-20T14:15:53.884Z,25.58
2023-01-20T14:18:26.252Z,23.13
2023-01-20T14:21:03.076Z,28.35
2023-01-20T14:23:31.773Z,26.05
2023-01-20T14:26:00.949Z,33.63
2023-01-20T14:28:28.576Z,32.35
2023-01-20T14:31:19.125Z,31.63
2023-01-20T14:34:19.864Z,26.05
2023-01-20T14:36:47.496Z,26.40
2023-01-20T14:39:22.700Z,26.10
2023-01-20T14:42:00.294Z,24.95
2023-01-20T14:44:29.542Z,26.20
2023-01-20T14:46:57.723Z,26.65
2023-01-20T14:49:32.725Z,25.02
2023-01-20T14:52:00.118Z,27.15
2023-01-20T14:54:30.930Z,21.80
2023-01-20T14:56:59.142Z,24.95
2023-01-20T14:59:26.719Z,25.23
2023-01-20T15:01:55.631Z,33.78
2023-01-20T15:04:22.998Z,35.97
2023-01-20T15:07:01.892Z,28.23
2023-01-20T15:09:32.888Z,33.53
2023-01-20T15:12:42.786Z,27.75
2023-01-20T15:15:31.753Z,28.63
2023-01-20T15:18:11.370Z,32.10
2023-01-20T15:20:44.062Z,28.35
2023-01-20T15:23:20.785Z,34.22
2023-01-20T15:25:49.872Z,35.47
2023-01-20T15:28:25.014Z,31.10
2023-01-20T15:30:53.909Z,40.90
2023-01-20T15:33:23.680Z,35.33
2023-01-20T15:36:00.669Z,41.92
2023-01-20T15:38:30.352Z,43.03
2023-01-20T15:40:57.798Z,35.15
2023-01-20T15:43:25.334Z,31.25
2023-01-20T15:45:52.723Z,38.50
2023-01-20T15:48:21.517Z,33.28
2023-01-20T15:50:48.990Z,34.15
2023-01-20T15:53:16.748Z,34.20
2023-01-20T15:55:51.099Z,34.17
2023-01-20T15:58:26.856Z,35.90
2023-01-20T16:00:56.662Z,43.92
2023-01-20T16:03:24.768Z,48.55
2023-01-20T16:05:53.387Z,34.60
2023-01-20T16:08:24.144Z,32.35
2023-01-20T16:10:51.666Z,35.67
2023-01-20T16:13:19.180Z,35.47
2023-01-20T16:15:49.247Z,33.80
2023-01-20T16:18:17.422Z,36.30
2023-01-20T16:20:47.251Z,32.72
2023-01-20T16:23:14.709Z,32.85
2023-01-20T16:25:42.716Z,30.75
2023-01-20T16:28:19.830Z,38.38
2023-01-20T16:30:48.042Z,43.92
2023-01-20T16:33:23.795Z,31.50
2023-01-20T16:35:52.857Z,34.28
2023-01-20T16:38:23.008Z,37.13
2023-01-20T16:41:04.908Z,36.80
2023-01-20T16:45:59.583Z,28.90
2023-01-20T16:48:27.252Z,30.52
2023-01-20T16:50:54.771Z,34.38
2023-01-20T16:53:26.922Z,37.33
2023-01-20T16:55:54.439Z,39.92
2023-01-20T16:58:21.893Z,33.20
2023-01-20T17:00:49.283Z,42.92
2023-01-20T17:03:17.115Z,29.60
2023-01-20T17:05:44.743Z,35.22
2023-01-20T17:08:12.504Z,40.10
2023-01-20T17:10:40.073Z,40.92
2023-01-20T17:13:07.590Z,34.80
2023-01-20T17:15:36.061Z,33.42
2023-01-20T17:18:05.087Z,38.08
2023-01-20T17:20:32.626Z,30.63
2023-01-20T17:23:00.194Z,30.67
2023-01-20T17:25:27.885Z,38.17
2023-01-20T17:27:56.317Z,28.52
2023-01-20T17:30:26.353Z,32.42
2023-01-20T17:32:54.164Z,28.02
2023-01-20T17:35:21.622Z,27.80
2023-01-20T17:37:49.018Z,27.73
2023-01-20T17:40:17.275Z,28.80
2023-01-20T17:42:52.897Z,26.17
2023-01-20T17:47:51.168Z,26.48
2023-01-20T17:50:22.414Z,27.05
2023-01-20T17:52:50.695Z,27.52
2023-01-20T17:55:18.486Z,26.13
2023-01-20T17:57:46.033Z,23.73
2023-01-20T18:00:14.559Z,29.92
2023-01-20T18:02:42.567Z,23.75
2023-01-20T18:05:10.061Z,25.65
2023-01-20T18:07:38.153Z,35.47
2023-01-20T18:10:06.017Z,24.70
2023-01-20T18:12:33.871Z,25.77
2023-01-20T18:15:01.462Z,22.92
2023-01-20T18:17:34.408Z,20.35
2023-01-20T18:20:02.161Z,23.65
2023-01-20T18:22:30.275Z,16.38
2023-01-20T18:24:57.991Z,25.40
2023-01-20T18:27:25.415Z,28.40
2023-01-20T18:29:52.914Z,27.10
2023-01-20T18:32:20.357Z,28.70
2023-01-20T18:34:47.924Z,22.80
2023-01-20T18:37:15.526Z,23.75
2023-01-20T18:39:43.976Z,17.20
2023-01-20T18:42:11.714Z,21.02
2023-01-20T18:44:39.152Z,22.33
2023-01-20T18:47:06.622Z,22.02
2023-01-20T18:49:34.272Z,27.27
2023-01-20T18:52:01.837Z,21.27
2023-01-20T18:54:32.945Z,26.60
2023-01-20T18:57:00.536Z,23.85
2023-01-20T18:59:27.973Z,21.20
2023-01-20T19:01:58.542Z,21.98
2023-01-20T19:04:26.101Z,24.25
2023-01-20T19:06:53.478Z,24.77
2023-01-20T19:09:21.269Z,27.10
2023-01-20T19:11:49.614Z,19.95
2023-01-20T19:14:17.125Z,23.02
2023-01-20T19:16:49.507Z,22.90
2023-01-20T19:19:19.757Z,24.98
2023-01-20T19:21:50.156Z,21.75
2023-01-20T19:24:20.090Z,25.53
2023-01-20T19:26:47.664Z,32.30
2023-01-20T19:29:16.026Z,30.15
2023-01-20T19:31:43.519Z,26.92
2023-01-20T19:34:11.108Z,24.20
2023-01-20T19:36:38.735Z,22.63
2023-01-20T19:39:06.162Z,22.00
2023-01-20T19:41:35.950Z,24.70
2023-01-20T19:44:04.646Z,35.53
2023-01-20T19:46:35.196Z,24.48
2023-01-20T19:49:02.825Z,24.83
2023-01-20T19:51:33.498Z,21.00
2023-01-20T19:56:30.663Z,26.08
2023-01-20T19:58:58.247Z,36.00
2023-01-20T20:01:29.774Z,25.67
2023-01-20T20:03:59.587Z,29.10
2023-01-20T20:06:37.585Z,28.52
2023-01-20T20:09:12.676Z,25.15
2023-01-20T20:11:40.423Z,23.30
2023-01-20T20:14:08.573Z,22.30
2023-01-20T20:16:36.816Z,23.75
2023-01-20T20:19:05.044Z,20.85
2023-01-20T20:21:32.588Z,23.65
2023-01-20T20:24:01.598Z,32.20
2023-01-20T20:26:30.873Z,30.08
2023-01-20T20:28:59.001Z,26.75
2023-01-20T20:31:29.465Z,21.30
2023-01-20T20:34:00.797Z,17.40
2023-01-20T20:36:29.650Z,23.10
2023-01-20T20:38:58.872Z,26.17
2023-01-20T20:41:29.055Z,18.70
2023-01-20T20:43:56.980Z,19.05
2023-01-20T20:46:25.300Z,26.25
2023-01-20T20:49:00.091Z,19.73
2023-01-20T20:51:29.038Z,19.50
2023-01-20T20:53:56.635Z,23.23
2023-01-20T20:56:24.634Z,16.60
2023-01-20T20:59:01.461Z,24.27
2023-01-20T21:01:33.390Z,19.38
2023-01-20T21:04:01.903Z,19.77
2023-01-20T21:06:30.957Z,19.60
2023-01-20T21:09:01.469Z,18.42
2023-01-20T21:11:29.059Z,30.93
2023-01-20T21:13:57.089Z,20.85
2023-01-20T21:16:24.961Z,16.00
2023-01-20T21:18:52.960Z,14.02
2023-01-20T21:21:20.684Z,17.05
2023-01-20T21:23:55.331Z,28.08
2023-01-20T21:26:24.045Z,22.13
2023-01-20T21:28:51.818Z,25.38
2023-01-20T21:31:21.496Z,25.73
2023-01-20T21:33:55.132Z,28.13
2023-01-20T21:36:22.849Z,18.60
2023-01-20T21:38:50.794Z,17.95
2023-01-20T21:41:20.224Z,18.35
2023-01-20T21:44:06.767Z,17.88
2023-01-20T21:46:39.202Z,20.85
2023-01-20T21:49:27.631Z,14.63
2023-01-20T21:52:15.227Z,17.73
2023-01-20T21:54:45.056Z,14.55
2023-01-20T21:57:18.886Z,14.65
2023-01-20T21:59:46.834Z,17.27
2023-01-20T22:02:14.423Z,19.40
2023-01-20T22:04:42.029Z,15.82
2023-01-20T22:07:10.471Z,11.98
2023-01-20T22:09:38.136Z,12.02
2023-01-20T22:12:05.815Z,18.90
2023-01-20T22:14:33.879Z,13.27
2023-01-20T22:17:01.306Z,17.75
2023-01-20T22:19:28.728Z,16.10
2023-01-20T22:21:56.986Z,15.27
2023-01-20T22:24:26.759Z,12.55
2023-01-20T22:26:54.410Z,11.05
2023-01-20T22:29:21.899Z,14.68
2023-01-20T22:31:53.442Z,20.48
2023-01-20T22:34:21.827Z,12.00
2023-01-20T22:36:49.277Z,18.85
2023-01-20T22:39:16.977Z,13.40
2023-01-20T22:41:44.538Z,16.90
2023-01-20T22:44:12.212Z,21.10
2023-01-20T22:46:40.003Z,20.98
2023-01-20T22:49:07.480Z,14.30
2023-01-20T22:51:35.082Z,18.00
2023-01-20T22:54:02.542Z,13.80
2023-01-20T22:56:31.524Z,14.90
2023-01-20T22:58:59.263Z,13.40
2023-01-20T23:01:31.819Z,8.57
2023-01-20T23:04:01.475Z,11.43
2023-01-20T23:06:32.689Z,9.98
2023-01-20T23:11:28.610Z,14.93
2023-01-20T23:13:56.751Z,13.85
2023-01-20T23:16:24.562Z,13.52
2023-01-20T23:18:52.463Z,16.88
2023-01-20T23:21:24.509Z,8.55
2023-01-20T23:23:54.909Z,14.23
2023-01-20T23:26:27.037Z,18.03
2023-01-20T23:28:55.592Z,12.45
2023-01-20T23:31:24.113Z,19.42
2023-01-20T23:33:53.360Z,14.18
2023-01-20T23:36:23.948Z,11.60
2023-01-20T23:38:53.358Z,14.60
2023-01-20T23:41:20.855Z,16.52
2023-01-20T23:43:48.804Z,10.95
2023-01-20T23:46:16.211Z,9.93
2023-01-20T23:48:45.356Z,8.10
2023-01-20T23:51:13.433Z,9.05
2023-01-20T23:53:41.332Z,9.27
2023-01-20T23:56:14.271Z,12.10
2023-01-20T23:58:42.625Z,7.82
